createdAt,value
2019-02-21T00:01:05.195Z,20.40
2019-02-21T00:03:32.080Z,20.40
2019-02-21T00:05:59.623Z,20.40
2019-02-21T00:08:26.804Z,20.40
2019-02-21T00:10:54.003Z,20.40
2019-02-21T00:13:21.219Z,20.40
2019-02-21T00:15:48.317Z,20.40
2019-02-21T00:18:15.031Z,20.40
2019-02-21T00:20:41.922Z,20.50
2019-02-21T00:23:08.622Z,20.40
2019-02-21T00:25:35.634Z,20.50
2019-02-21T00:28:02.995Z,20.50
2019-02-21T00:30:35.135Z,20.50
2019-02-21T00:33:00.136Z,20.40
2019-02-21T00:35:26.961Z,20.50
2019-02-21T00:37:54.086Z,20.50
2019-02-21T00:40:20.847Z,20.50
2019-02-21T00:42:47.627Z,20.40
2019-02-21T00:45:14.730Z,20.50
2019-02-21T00:47:41.591Z,20.50
2019-02-21T00:50:08.351Z,20.50
2019-02-21T00:52:35.035Z,20.50
2019-02-21T00:55:02.063Z,20.50
2019-02-21T00:57:29.033Z,20.50
2019-02-21T00:59:56.238Z,20.50
2019-02-21T01:02:22.836Z,20.50
2019-02-21T01:04:49.567Z,20.50
2019-02-21T01:07:16.265Z,20.50
2019-02-21T01:09:43.044Z,20.50
2019-02-21T01:12:09.786Z,20.50
2019-02-21T01:14:36.585Z,20.50
2019-02-21T01:17:03.689Z,20.50
2019-02-21T01:19:30.430Z,20.50
2019-02-21T01:21:57.690Z,20.50
2019-02-21T01:24:24.472Z,20.50
2019-02-21T01:26:51.179Z,20.50
2019-02-21T01:29:17.942Z,20.60
2019-02-21T01:31:45.287Z,20.50
2019-02-21T01:34:12.106Z,20.50
2019-02-21T01:36:38.956Z,20.50
2019-02-21T01:39:05.883Z,20.60
2019-02-21T01:41:32.614Z,20.60
2019-02-21T01:43:59.799Z,20.60
2019-02-21T01:46:26.663Z,20.60
2019-02-21T01:48:53.627Z,20.60
2019-02-21T01:51:20.724Z,20.60
2019-02-21T01:53:47.882Z,20.60
2019-02-21T01:56:14.622Z,20.60
2019-02-21T01:58:41.674Z,20.60
2019-02-21T02:01:09.153Z,20.60
2019-02-21T02:03:36.376Z,20.60
2019-02-21T02:06:03.101Z,20.60
2019-02-21T02:08:29.839Z,20.60
2019-02-21T02:10:57.655Z,20.60
2019-02-21T02:13:25.069Z,20.60
2019-02-21T02:15:52.937Z,20.60
2019-02-21T02:18:19.574Z,20.60
2019-02-21T02:20:46.289Z,20.60
2019-02-21T02:23:12.963Z,20.60
2019-02-21T02:25:39.696Z,20.60
2019-02-21T02:28:07.180Z,20.60
2019-02-21T02:30:34.045Z,20.60
2019-02-21T02:33:01.107Z,20.60
2019-02-21T02:35:28.997Z,20.60
2019-02-21T02:37:55.675Z,20.60
2019-02-21T02:40:22.939Z,20.60
2019-02-21T02:42:50.944Z,20.60
2019-02-21T02:45:17.675Z,20.60
2019-02-21T02:47:44.438Z,20.60
2019-02-21T02:50:11.595Z,20.60
2019-02-21T02:52:38.484Z,20.60
2019-02-21T02:55:05.474Z,20.60
2019-02-21T02:57:32.520Z,20.60
2019-02-21T02:59:59.325Z,20.60
2019-02-21T03:02:25.974Z,20.70
2019-02-21T03:04:54.659Z,20.70
2019-02-21T03:07:21.487Z,20.70
2019-02-21T03:09:48.479Z,20.70
2019-02-21T03:12:15.197Z,20.70
2019-02-21T03:14:49.168Z,20.70
2019-02-21T03:17:19.461Z,20.70
2019-02-21T03:19:46.261Z,20.70
2019-02-21T03:22:13.671Z,20.70
2019-02-21T03:24:40.528Z,20.70
2019-02-21T03:27:07.428Z,20.70
2019-02-21T03:29:34.831Z,20.70
2019-02-21T03:32:01.765Z,20.70
2019-02-21T03:34:28.453Z,20.70
2019-02-21T03:36:55.373Z,20.70
2019-02-21T03:39:22.073Z,20.70
2019-02-21T03:41:48.838Z,20.70
2019-02-21T03:44:16.287Z,20.70
2019-02-21T03:46:43.022Z,20.70
2019-02-21T03:49:10.108Z,20.70
2019-02-21T03:51:36.875Z,20.70
2019-02-21T03:54:03.909Z,20.70
2019-02-21T03:56:31.004Z,20.70
2019-02-21T03:58:58.764Z,20.70
2019-02-21T04:01:26.506Z,20.70
2019-02-21T04:03:53.680Z,20.70
2019-02-21T04:06:20.451Z,20.70
2019-02-21T04:08:47.241Z,20.70
2019-02-21T04:11:14.367Z,20.70
2019-02-21T04:13:41.088Z,20.70
2019-02-21T04:16:08.055Z,20.80
2019-02-21T04:18:34.900Z,20.70
2019-02-21T04:21:02.161Z,20.80
2019-02-21T04:23:28.868Z,20.70
2019-02-21T04:25:55.578Z,20.80
2019-02-21T04:28:22.304Z,20.80
2019-02-21T04:30:49.001Z,20.80
2019-02-21T04:33:15.722Z,20.80
2019-02-21T04:35:43.143Z,20.70
2019-02-21T04:38:09.886Z,20.70
2019-02-21T04:40:36.914Z,20.80
2019-02-21T04:43:04.158Z,20.80
2019-02-21T04:45:31.230Z,20.80
2019-02-21T04:47:58.396Z,20.80
2019-02-21T04:50:25.523Z,20.80
2019-02-21T04:52:52.351Z,20.80
2019-02-21T04:55:19.096Z,20.80
2019-02-21T04:57:45.889Z,20.70
2019-02-21T05:00:12.591Z,20.80
2019-02-21T05:02:39.305Z,20.80
2019-02-21T05:05:06.486Z,20.80
2019-02-21T05:07:33.219Z,20.80
2019-02-21T05:09:59.960Z,20.80
2019-02-21T05:12:27.020Z,20.80
2019-02-21T05:14:53.734Z,20.80
2019-02-21T05:17:20.480Z,20.80
2019-02-21T05:19:47.957Z,20.80
2019-02-21T05:22:15.079Z,20.80
2019-02-21T05:24:41.859Z,20.90
2019-02-21T05:27:10.491Z,20.90
2019-02-21T05:29:37.390Z,21.00
2019-02-21T05:32:15.268Z,21.00
2019-02-21T05:34:43.990Z,21.10
2019-02-21T05:37:22.062Z,21.20
2019-02-21T05:39:57.233Z,21.20
2019-02-21T05:42:29.966Z,21.30
2019-02-21T05:45:15.946Z,21.40
2019-02-21T05:48:01.835Z,21.40
2019-02-21T05:50:33.695Z,21.50
2019-02-21T05:53:08.643Z,21.50
2019-02-21T05:55:46.764Z,21.50
2019-02-21T05:58:15.422Z,21.60
2019-02-21T06:00:47.604Z,21.60
2019-02-21T06:03:35.708Z,21.60
2019-02-21T06:06:03.510Z,21.60
2019-02-21T06:08:49.100Z,21.60
2019-02-21T06:11:18.362Z,21.60
2019-02-21T06:13:48.474Z,21.60
2019-02-21T06:16:23.355Z,21.60
2019-02-21T06:19:13.144Z,21.60
2019-02-21T06:21:46.504Z,21.60
2019-02-21T06:24:15.263Z,21.50
2019-02-21T06:26:45.607Z,21.50
2019-02-21T06:29:15.747Z,21.50
2019-02-21T06:31:42.615Z,21.50
2019-02-21T06:34:12.575Z,21.50
2019-02-21T06:36:39.852Z,21.50
2019-02-21T06:39:08.689Z,21.40
2019-02-21T06:41:36.859Z,21.40
2019-02-21T06:44:03.637Z,21.40
2019-02-21T06:46:30.402Z,21.40
2019-02-21T06:48:57.218Z,21.30
2019-02-21T06:51:24.054Z,21.30
2019-02-21T06:53:53.099Z,21.30
2019-02-21T06:56:19.951Z,21.30
2019-02-21T06:58:46.689Z,21.30
2019-02-21T07:01:25.266Z,21.30
2019-02-21T07:03:44.121Z,21.30
2019-02-21T07:06:11.032Z,21.30
2019-02-21T07:08:40.031Z,21.30
2019-02-21T07:11:06.727Z,21.30
2019-02-21T07:13:33.728Z,21.30
2019-02-21T07:16:00.443Z,21.40
2019-02-21T07:18:28.851Z,21.30
2019-02-21T07:20:55.815Z,21.40
2019-02-21T07:23:22.634Z,21.30
2019-02-21T07:25:52.791Z,21.40
2019-02-21T07:28:20.927Z,21.40
2019-02-21T07:30:48.562Z,21.40
2019-02-21T07:33:27.280Z,21.40
2019-02-21T07:35:44.713Z,21.40
2019-02-21T07:38:11.578Z,21.40
2019-02-21T07:40:40.705Z,21.40
2019-02-21T07:43:07.409Z,21.40
2019-02-21T07:45:36.324Z,21.40
2019-02-21T07:48:03.028Z,21.40
2019-02-21T07:50:29.748Z,21.40
2019-02-21T07:53:02.443Z,21.40
2019-02-21T07:55:26.131Z,21.40
2019-02-21T07:57:52.851Z,21.50
2019-02-21T08:00:19.626Z,21.50
2019-02-21T08:02:46.295Z,21.50
2019-02-21T08:05:13.027Z,21.50
2019-02-21T08:07:39.857Z,21.50
2019-02-21T08:10:10.955Z,21.50
2019-02-21T08:12:40.458Z,21.40
2019-02-21T08:15:11.810Z,21.40
2019-02-21T08:17:38.007Z,21.50
2019-02-21T08:20:11.231Z,21.50
2019-02-21T08:22:38.219Z,21.50
2019-02-21T08:25:10.044Z,21.50
2019-02-21T08:27:37.537Z,21.50
2019-02-21T08:30:11.036Z,21.50
2019-02-21T08:32:39.625Z,21.60
2019-02-21T08:35:06.996Z,21.70
2019-02-21T08:37:36.019Z,21.70
2019-02-21T08:40:03.809Z,21.80
2019-02-21T08:42:30.577Z,21.80
2019-02-21T08:44:57.414Z,21.90
2019-02-21T08:47:24.207Z,22.00
2019-02-21T08:49:51.395Z,22.10
2019-02-21T08:52:18.636Z,22.10
2019-02-21T08:54:45.316Z,22.10
2019-02-21T08:57:12.053Z,22.20
2019-02-21T08:59:38.728Z,22.20
2019-02-21T09:02:08.189Z,22.30
2019-02-21T09:04:34.912Z,22.30
2019-02-21T09:07:01.784Z,22.30
2019-02-21T09:09:28.636Z,22.40
2019-02-21T09:11:55.413Z,22.40
2019-02-21T09:14:22.485Z,22.50
2019-02-21T09:16:49.511Z,22.50
2019-02-21T09:19:16.231Z,22.50
2019-02-21T09:21:43.373Z,22.50
2019-02-21T09:24:10.083Z,22.60
2019-02-21T09:26:36.827Z,22.60
2019-02-21T09:29:03.934Z,22.70
2019-02-21T09:31:30.675Z,22.70
2019-02-21T09:33:57.372Z,22.80
2019-02-21T09:36:24.115Z,22.80
2019-02-21T09:38:50.963Z,22.80
2019-02-21T09:41:17.755Z,22.80
2019-02-21T09:43:44.522Z,22.90
2019-02-21T09:46:11.655Z,22.90
2019-02-21T09:48:38.694Z,22.90
2019-02-21T09:51:05.812Z,22.90
2019-02-21T09:53:32.540Z,23.00
2019-02-21T09:55:59.555Z,23.00
2019-02-21T09:58:26.307Z,23.00
2019-02-21T10:00:53.075Z,23.00
2019-02-21T10:03:19.837Z,22.90
2019-02-21T10:05:46.627Z,22.90
2019-02-21T10:08:13.365Z,22.90
2019-02-21T10:10:40.471Z,23.00
2019-02-21T10:13:07.187Z,23.40
2019-02-21T10:15:34.761Z,23.60
2019-02-21T10:18:01.607Z,23.50
2019-02-21T10:20:28.735Z,23.80
2019-02-21T10:22:55.497Z,23.90
2019-02-21T10:25:24.463Z,23.80
2019-02-21T10:27:51.339Z,23.60
2019-02-21T10:30:20.610Z,23.30
2019-02-21T10:32:47.408Z,23.10
2019-02-21T10:35:14.109Z,23.00
2019-02-21T10:37:40.832Z,22.90
2019-02-21T10:40:15.606Z,22.90
2019-02-21T10:42:42.793Z,22.80
2019-02-21T10:45:13.061Z,22.80
2019-02-21T10:47:40.475Z,22.80
2019-02-21T10:50:10.936Z,22.70
2019-02-21T10:52:38.361Z,22.80
2019-02-21T10:55:06.030Z,22.70
2019-02-21T10:57:33.897Z,22.70
2019-02-21T11:00:00.789Z,22.70
2019-02-21T11:02:27.601Z,22.70
2019-02-21T11:04:55.186Z,22.70
2019-02-21T11:07:22.196Z,22.70
2019-02-21T11:09:49.247Z,22.70
2019-02-21T11:12:16.047Z,22.70
2019-02-21T11:14:47.780Z,22.70
2019-02-21T11:17:14.235Z,22.70
2019-02-21T11:19:41.078Z,22.60
2019-02-21T11:22:07.866Z,22.70
2019-02-21T11:24:34.595Z,22.60
2019-02-21T11:27:01.631Z,22.60
2019-02-21T11:29:28.562Z,22.60
2019-02-21T11:31:55.486Z,22.60
2019-02-21T11:34:22.339Z,22.60
2019-02-21T11:36:49.182Z,22.50
2019-02-21T11:39:16.210Z,22.60
2019-02-21T11:41:43.315Z,22.60
2019-02-21T11:44:10.035Z,22.60
2019-02-21T11:46:36.767Z,22.60
2019-02-21T11:49:03.567Z,22.60
2019-02-21T11:51:30.658Z,22.60
2019-02-21T11:53:57.823Z,22.50
2019-02-21T11:56:24.524Z,22.50
2019-02-21T11:58:51.694Z,22.60
2019-02-21T12:01:18.752Z,22.50
2019-02-21T12:03:45.519Z,22.50
2019-02-21T12:06:14.464Z,22.50
2019-02-21T12:08:41.767Z,22.50
2019-02-21T12:11:08.504Z,22.40
2019-02-21T12:13:35.245Z,22.50
2019-02-21T12:16:02.659Z,22.40
2019-02-21T12:18:29.507Z,22.40
2019-02-21T12:20:56.496Z,22.40
2019-02-21T12:23:23.242Z,22.40
2019-02-21T12:25:50.746Z,22.40
2019-02-21T12:28:17.688Z,22.40
2019-02-21T12:30:44.418Z,22.40
2019-02-21T12:33:11.272Z,22.50
2019-02-21T12:35:38.471Z,22.60
2019-02-21T12:38:05.485Z,22.60
2019-02-21T12:40:32.499Z,22.60
2019-02-21T12:42:59.248Z,22.70
2019-02-21T12:45:25.954Z,22.70
2019-02-21T12:47:54.031Z,22.80
2019-02-21T12:50:21.003Z,22.90
2019-02-21T12:52:48.326Z,22.90
2019-02-21T12:55:26.524Z,23.00
2019-02-21T12:57:43.634Z,23.10
2019-02-21T13:00:12.762Z,23.00
2019-02-21T13:02:39.596Z,23.00
2019-02-21T13:05:06.335Z,23.00
2019-02-21T14:51:04.851Z,23.90
2019-02-21T14:53:31.890Z,23.80
2019-02-21T14:55:58.745Z,23.80
2019-02-21T14:58:25.544Z,23.70
2019-02-21T15:00:52.630Z,23.70
2019-02-21T15:03:22.212Z,23.60
2019-02-21T15:05:48.322Z,23.60
2019-02-21T15:08:18.938Z,23.60
2019-02-21T15:10:47.337Z,23.60
2019-02-21T15:13:16.113Z,23.60
2019-02-21T15:15:43.216Z,23.60
2019-02-21T15:18:11.278Z,23.60
2019-02-21T15:20:38.636Z,23.60
2019-02-21T15:23:06.182Z,23.60
2019-02-21T15:25:32.929Z,23.50
2019-02-21T15:27:59.761Z,23.50
2019-02-21T15:30:29.376Z,23.50
2019-02-21T15:32:56.219Z,23.40
2019-02-21T15:35:23.025Z,23.50
2019-02-21T15:37:50.140Z,23.50
2019-02-21T15:40:18.412Z,23.60
2019-02-21T15:42:45.155Z,23.60
2019-02-21T15:45:23.461Z,23.60
2019-02-21T15:47:48.717Z,23.60
2019-02-21T15:50:15.526Z,23.60
2019-02-21T15:52:44.189Z,23.60
2019-02-21T15:55:14.676Z,23.60
2019-02-21T15:57:41.517Z,23.60
2019-02-21T16:00:18.115Z,23.60
2019-02-21T16:02:45.199Z,23.60
2019-02-21T16:05:11.954Z,23.70
2019-02-21T16:07:38.820Z,23.60
2019-02-21T16:10:19.716Z,23.60
2019-02-21T16:12:46.696Z,23.50
2019-02-21T16:15:16.174Z,23.60
2019-02-21T16:17:42.537Z,23.60
2019-02-21T16:20:17.000Z,23.60
2019-02-21T16:22:43.875Z,23.60
2019-02-21T16:25:23.917Z,23.70
2019-02-21T16:27:50.711Z,23.70
2019-02-21T16:30:17.970Z,23.80
2019-02-21T16:32:45.204Z,23.80
2019-02-21T16:35:13.407Z,23.90
2019-02-21T16:37:40.164Z,23.90
2019-02-21T16:40:19.951Z,23.80
2019-02-21T16:42:47.170Z,23.90
2019-02-21T16:45:19.157Z,23.80
2019-02-21T16:47:46.032Z,23.90
2019-02-21T16:50:13.602Z,23.80
2019-02-21T16:52:40.356Z,23.80
2019-02-21T16:55:23.530Z,23.80
2019-02-21T16:57:50.320Z,23.90
2019-02-21T17:00:20.125Z,23.90
2019-02-21T17:02:46.857Z,23.90
2019-02-21T17:05:14.804Z,24.00
2019-02-21T17:07:41.837Z,24.10
2019-02-21T17:10:11.598Z,24.10
2019-02-21T17:12:38.692Z,24.10
2019-02-21T17:15:09.868Z,24.10
2019-02-21T17:17:36.991Z,24.10
2019-02-21T17:20:16.094Z,24.10
2019-02-21T17:22:42.851Z,24.10
2019-02-21T17:25:14.661Z,24.10
2019-02-21T17:27:43.488Z,24.10
2019-02-21T17:30:14.231Z,24.10
2019-02-21T17:32:40.935Z,24.10
2019-02-21T17:35:08.141Z,24.20
2019-02-21T17:37:35.292Z,24.10
2019-02-21T17:40:04.967Z,24.10
2019-02-21T17:42:31.737Z,24.10
2019-02-21T17:44:58.866Z,24.00
2019-02-21T17:47:26.039Z,23.80
2019-02-21T17:49:53.225Z,23.70
2019-02-21T17:52:19.967Z,23.60
2019-02-21T17:54:47.626Z,23.50
2019-02-21T17:57:15.532Z,23.40
2019-02-21T17:59:43.201Z,23.30
2019-02-21T18:02:10.364Z,23.20
2019-02-21T18:04:37.198Z,23.10
2019-02-21T18:07:04.542Z,23.00
2019-02-21T18:09:31.803Z,22.90
2019-02-21T18:11:58.571Z,22.80
2019-02-21T18:14:25.306Z,22.70
2019-02-21T18:16:52.148Z,22.60
2019-02-21T18:19:18.995Z,22.60
2019-02-21T18:21:45.855Z,22.50
2019-02-21T18:24:12.659Z,22.40
2019-02-21T18:26:39.476Z,22.30
2019-02-21T18:29:06.243Z,22.20
2019-02-21T18:31:33.109Z,22.20
2019-02-21T18:33:59.967Z,22.10
2019-02-21T18:36:28.799Z,22.10
2019-02-21T18:38:55.607Z,22.00
2019-02-21T18:41:22.454Z,22.00
2019-02-21T18:43:49.200Z,21.90
2019-02-21T18:46:16.281Z,21.80
2019-02-21T18:48:45.008Z,21.70
2019-02-21T18:51:11.763Z,21.70
2019-02-21T18:53:38.854Z,21.70
2019-02-21T18:56:05.814Z,21.60
2019-02-21T18:58:32.628Z,21.60
2019-02-21T19:00:59.643Z,21.50
2019-02-21T19:03:26.388Z,21.50
2019-02-21T19:05:53.720Z,21.50
2019-02-21T19:08:20.872Z,21.40
2019-02-21T19:10:49.950Z,21.40
2019-02-21T19:13:16.675Z,21.30
2019-02-21T19:15:43.748Z,21.30
2019-02-21T19:18:11.114Z,21.30
2019-02-21T19:20:38.636Z,21.20
2019-02-21T19:23:05.627Z,21.20
2019-02-21T19:25:34.000Z,21.20
2019-02-21T19:28:00.955Z,21.10
2019-02-21T19:30:33.193Z,21.10
2019-02-21T19:32:59.994Z,21.10
2019-02-21T19:35:26.852Z,21.00
2019-02-21T19:37:53.959Z,21.00
2019-02-21T19:40:20.673Z,21.00
2019-02-21T19:42:47.409Z,21.00
2019-02-21T19:45:14.177Z,20.90
2019-02-21T19:47:40.940Z,20.90
2019-02-21T19:50:08.721Z,20.90
2019-02-21T19:52:35.723Z,20.80
2019-02-21T19:55:03.973Z,20.80
2019-02-21T19:57:31.296Z,20.80
2019-02-21T19:59:58.678Z,20.70
2019-02-21T20:02:25.964Z,20.70
2019-02-21T20:04:52.899Z,20.70
2019-02-21T20:07:19.666Z,20.70
2019-02-21T20:09:46.429Z,20.60
2019-02-21T20:12:13.577Z,20.60
2019-02-21T20:14:40.949Z,20.60
2019-02-21T20:17:07.907Z,20.60
2019-02-21T20:19:34.810Z,20.50
2019-02-21T20:22:01.894Z,20.50
2019-02-21T20:24:29.512Z,20.50
2019-02-21T20:26:56.295Z,20.50
2019-02-21T20:29:23.197Z,20.50
2019-02-21T20:31:50.114Z,20.40
2019-02-21T20:34:16.857Z,20.40
2019-02-21T20:36:50.701Z,20.40
2019-02-21T20:39:12.269Z,20.40
2019-02-21T20:41:39.022Z,20.40
2019-02-21T20:44:05.760Z,20.30
2019-02-21T20:46:32.716Z,20.30
2019-02-21T20:48:59.562Z,20.30
2019-02-21T20:51:27.058Z,20.30
2019-02-21T20:53:54.076Z,20.30
2019-02-21T20:56:22.497Z,20.30
2019-02-21T20:58:49.261Z,20.30
2019-02-21T21:01:16.268Z,20.20
2019-02-21T21:03:43.250Z,20.20
2019-02-21T21:06:10.333Z,20.20
2019-02-21T21:08:43.203Z,20.20
2019-02-21T21:11:06.306Z,20.20
2019-02-21T21:13:33.412Z,20.10
2019-02-21T21:16:00.183Z,20.10
2019-02-21T21:18:27.073Z,20.10
2019-02-21T21:20:53.822Z,20.10
2019-02-21T21:23:21.149Z,20.10
2019-02-21T21:25:48.547Z,20.10
2019-02-21T21:28:15.500Z,20.10
2019-02-21T21:30:43.319Z,20.10
2019-02-21T21:33:10.032Z,20.00
2019-02-21T21:35:37.507Z,20.00
2019-02-21T21:38:04.511Z,20.00
2019-02-21T21:40:31.297Z,20.00
2019-02-21T21:42:58.571Z,20.00
2019-02-21T21:45:25.329Z,20.00
2019-02-21T21:47:52.240Z,19.90
2019-02-21T21:50:19.009Z,20.00
2019-02-21T21:52:45.752Z,19.90
2019-02-21T21:55:12.821Z,19.90
2019-02-21T21:57:39.986Z,20.00
2019-02-21T22:00:19.687Z,19.90
2019-02-21T22:02:46.575Z,19.90
2019-02-21T22:05:13.531Z,19.90
2019-02-21T22:07:41.061Z,19.90
2019-02-21T22:10:10.958Z,19.90
2019-02-21T22:12:38.028Z,19.90
2019-02-21T22:15:09.325Z,19.90
2019-02-21T22:17:36.158Z,19.90
2019-02-21T22:20:04.395Z,19.80
2019-02-21T22:22:31.570Z,19.80
2019-02-21T22:24:58.333Z,19.80
2019-02-21T22:27:25.745Z,19.80
2019-02-21T22:29:52.615Z,19.80
2019-02-21T22:32:20.097Z,19.80
2019-02-21T22:34:47.810Z,19.80
2019-02-21T22:37:14.834Z,19.80
2019-02-21T22:39:41.695Z,19.80
2019-02-21T22:42:08.761Z,19.80
2019-02-21T22:44:36.748Z,19.70
2019-02-21T22:47:04.630Z,19.80
2019-02-21T22:49:32.492Z,19.70
2019-02-21T22:51:59.364Z,19.70
2019-02-21T22:54:26.845Z,19.70
2019-02-21T22:56:53.660Z,19.70
2019-02-21T22:59:20.930Z,19.70
2019-02-21T23:01:48.238Z,19.70
2019-02-21T23:04:23.117Z,19.70
2019-02-21T23:07:01.622Z,19.70
2019-02-21T23:09:28.590Z,19.70
2019-02-21T23:11:55.324Z,19.70
2019-02-21T23:14:23.136Z,19.60
2019-02-21T23:16:50.903Z,19.60
2019-02-21T23:19:17.946Z,19.60
2019-02-21T23:21:44.790Z,19.60
2019-02-21T23:24:11.564Z,19.60
2019-02-21T23:26:38.323Z,19.60
2019-02-21T23:29:05.101Z,19.60
2019-02-21T23:31:31.983Z,19.60
2019-02-21T23:34:00.618Z,19.60
2019-02-21T23:36:28.190Z,19.60
2019-02-21T23:38:55.032Z,19.60
2019-02-21T23:41:21.775Z,19.50
2019-02-21T23:43:48.998Z,19.60
2019-02-21T23:46:15.942Z,19.60
2019-02-21T23:48:43.037Z,19.50
2019-02-21T23:51:10.391Z,19.50
2019-02-21T23:53:37.160Z,19.50
2019-02-21T23:56:04.308Z,19.50
2019-02-21T23:58:31.068Z,19.50
